Time,TemperatureF,DewpointF,PressureIn,WindDirection,WindDirectionDegrees,WindSpeedMPH,WindSpeedGustMPH,Humidity,HourlyPrecipIn,Conditions,Clouds,dailyrainin,SoftwareType,DateUTC
2013-02-22 00:00:00,38.1,21.1,30.18,NNE,22,2.5,2.5,50,0.00,,,0.00,VWS V14.01,2013-02-22 05:00:00,
2013-02-22 00:05:00,38.1,21.6,30.18,NNE,22,3.4,4.3,51,0.00,,,0.00,VWS V14.01,2013-02-22 05:05:00,
2013-02-22 00:10:00,38.1,22.1,30.18,ENE,68,4.0,4.0,52,0.00,,,0.00,VWS V14.01,2013-02-22 05:10:00,
2013-02-22 00:15:00,38.1,22.1,30.18,NE,45,5.6,5.6,52,0.00,,,0.00,VWS V14.01,2013-02-22 05:15:00,
2013-02-22 00:20:00,37.9,21.4,30.18,NNE,22,2.7,2.7,51,0.00,,,0.00,VWS V14.01,2013-02-22 05:20:00,
2013-02-22 00:25:00,37.9,21.4,30.15,NNE,22,3.1,5.8,51,0.00,,,0.00,VWS V14.01,2013-02-22 05:25:00,
2013-02-22 00:30:00,38.1,21.1,30.15,ENE,68,3.6,3.6,50,0.00,,,0.00,VWS V14.01,2013-02-22 05:30:00,
2013-02-22 00:35:00,38.1,21.6,30.15,ENE,68,7.6,7.6,51,0.00,,,0.00,VWS V14.01,2013-02-22 05:35:00,
2013-02-22 00:40:00,37.9,21.4,30.15,ENE,68,12.8,12.8,51,0.00,,,0.00,VWS V14.01,2013-02-22 05:40:00,
2013-02-22 00:45:00,37.9,21.0,30.15,NNE,22,4.3,4.3,50,0.00,,,0.00,VWS V14.01,2013-02-22 05:45:00,
2013-02-22 00:50:00,37.9,21.4,30.15,NNE,22,4.3,4.7,51,0.00,,,0.00,VWS V14.01,2013-02-22 05:50:00,
2013-02-22 00:55:00,37.9,21.4,30.15,ENE,68,2.9,3.8,51,0.00,,,0.00,VWS V14.01,2013-02-22 05:55:00,
2013-02-22 01:00:00,37.9,21.9,30.15,NE,45,4.0,4.0,52,0.00,,,0.00,VWS V14.01,2013-02-22 06:00:00,
2013-02-22 01:05:00,37.9,21.0,30.15,NNE,22,3.4,5.6,50,0.00,,,0.00,VWS V14.01,2013-02-22 06:05:00,
2013-02-22 01:10:00,37.9,21.0,30.18,NNE,22,2.7,3.6,50,0.00,,,0.00,VWS V14.01,2013-02-22 06:10:00,
2013-02-22 01:15:00,37.9,21.0,30.18,ENE,68,4.0,4.0,50,0.00,,,0.00,VWS V14.01,2013-02-22 06:15:00,
2013-02-22 01:20:00,37.8,20.8,30.18,NNE,22,2.9,3.8,50,0.00,,,0.00,VWS V14.01,2013-02-22 06:20:00,
2013-02-22 01:25:00,37.8,20.8,30.18,North,0,4.3,4.3,50,0.00,,,0.00,VWS V14.01,2013-02-22 06:25:00,
2013-02-22 01:30:00,37.8,20.8,30.18,NNE,22,4.3,4.3,50,0.00,,,0.00,VWS V14.01,2013-02-22 06:30:00,
2013-02-22 01:35:00,37.6,20.6,30.18,North,0,4.0,4.0,50,0.00,,,0.00,VWS V14.01,2013-02-22 06:35:00,
2013-02-22 01:40:00,37.6,20.6,30.18,NNE,22,5.8,5.8,50,0.00,,,0.00,VWS V14.01,2013-02-22 06:40:00,
2013-02-22 01:45:00,37.6,20.6,30.18,NNE,22,4.0,4.0,50,0.00,,,0.00,VWS V14.01,2013-02-22 06:45:00,
2013-02-22 01:50:00,37.6,20.6,30.18,NNE,22,1.3,1.3,50,0.00,,,0.00,VWS V14.01,2013-02-22 06:50:00,
2013-02-22 01:55:00,37.6,20.6,30.18,NNE,22,5.8,5.8,50,0.00,,,0.00,VWS V14.01,2013-02-22 06:55:00,
2013-02-22 02:00:00,37.6,20.6,30.18,NNW,338,4.7,10.1,50,0.00,,,0.00,VWS V14.01,2013-02-22 07:00:00,
2013-02-22 02:05:00,37.6,20.6,30.18,North,0,2.5,4.7,50,0.00,,,0.00,VWS V14.01,2013-02-22 07:05:00,
2013-02-22 02:10:00,37.6,20.6,30.18,NNE,22,3.1,5.4,50,0.00,,,0.00,VWS V14.01,2013-02-22 07:10:00,
2013-02-22 02:15:00,37.6,20.6,30.18,North,0,4.0,4.0,50,0.00,,,0.00,VWS V14.01,2013-02-22 07:15:00,
2013-02-22 02:20:00,37.6,20.6,30.18,East,90,5.6,5.6,50,0.00,,,0.00,VWS V14.01,2013-02-22 07:20:00,
2013-02-22 02:25:00,37.6,20.2,30.21,NNW,338,4.0,4.3,49,0.00,,,0.00,VWS V14.01,2013-02-22 07:25:00,
2013-02-22 02:30:00,37.6,20.6,30.21,NNE,22,2.5,2.5,50,0.00,,,0.00,VWS V14.01,2013-02-22 07:30:00,
2013-02-22 02:35:00,37.6,20.6,30.21,North,0,2.7,2.7,50,0.00,,,0.00,VWS V14.01,2013-02-22 07:35:00,
2013-02-22 02:40:00,37.6,20.6,30.21,North,0,3.1,3.1,50,0.00,,,0.00,VWS V14.01,2013-02-22 07:40:00,
2013-02-22 02:45:00,37.6,20.6,30.21,North,0,4.7,4.7,50,0.00,,,0.00,VWS V14.01,2013-02-22 07:45:00,
2013-02-22 02:50:00,37.8,20.8,30.21,North,0,1.6,2.7,50,0.00,,,0.00,VWS V14.01,2013-02-22 07:50:00,
2013-02-22 02:55:00,37.8,20.8,30.21,NNW,338,2.7,2.7,50,0.00,,,0.00,VWS V14.01,2013-02-22 07:55:00,
2013-02-22 03:00:00,37.8,20.8,30.21,North,0,5.4,5.4,50,0.00,,,0.00,VWS V14.01,2013-02-22 08:00:00,
2013-02-22 03:05:00,37.8,20.8,30.21,North,0,4.9,4.9,50,0.00,,,0.00,VWS V14.01,2013-02-22 08:05:00,
2013-02-22 03:10:00,37.6,21.1,30.24,NNW,338,3.6,3.6,51,0.00,,,0.00,VWS V14.01,2013-02-22 08:10:00,
2013-02-22 03:15:00,37.4,20.9,30.24,WNW,292,3.1,3.1,51,0.00,,,0.00,VWS V14.01,2013-02-22 08:15:00,
2013-02-22 03:20:00,37.2,20.8,30.24,NW,315,2.5,2.5,51,0.00,,,0.00,VWS V14.01,2013-02-22 08:20:00,
2013-02-22 03:25:00,37.0,20.6,30.24,NW,315,2.7,5.4,51,0.00,,,0.00,VWS V14.01,2013-02-22 08:25:00,
2013-02-22 03:30:00,36.9,20.0,30.24,NNW,338,3.6,3.6,50,0.00,,,0.00,VWS V14.01,2013-02-22 08:30:00,
2013-02-22 03:35:00,36.7,19.8,30.24,NW,315,3.4,3.4,50,0.00,,,0.00,VWS V14.01,2013-02-22 08:35:00,
2013-02-22 03:40:00,36.7,19.8,30.21,NNW,338,3.8,3.8,50,0.00,,,0.00,VWS V14.01,2013-02-22 08:40:00,
2013-02-22 03:45:00,36.7,19.8,30.21,NNW,338,3.1,4.0,50,0.00,,,0.00,VWS V14.01,2013-02-22 08:45:00,
2013-02-22 03:50:00,36.5,19.6,30.21,NNW,338,1.6,3.4,50,0.00,,,0.00,VWS V14.01,2013-02-22 08:50:00,
2013-02-22 03:55:00,36.5,19.6,30.21,NNW,338,2.5,2.5,50,0.00,,,0.00,VWS V14.01,2013-02-22 08:55:00,
2013-02-22 04:00:00,36.3,19.5,30.21,NNW,338,3.1,3.1,50,0.00,,,0.00,VWS V14.01,2013-02-22 09:00:00,
2013-02-22 04:05:00,36.3,19.5,30.21,NW,315,3.1,3.1,50,0.00,,,0.00,VWS V14.01,2013-02-22 09:05:00,
2013-02-22 04:11:00,36.3,19.5,30.21,NNW,338,3.6,3.6,50,0.00,,,0.00,VWS V14.01,2013-02-22 09:11:00,
2013-02-22 04:16:00,36.3,19.5,30.21,NNW,338,3.4,3.4,50,0.00,,,0.00,VWS V14.01,2013-02-22 09:16:00,
2013-02-22 04:21:00,36.3,19.5,30.21,NNW,338,3.4,3.6,50,0.00,,,0.00,VWS V14.01,2013-02-22 09:21:00,
2013-02-22 04:26:00,36.3,19.5,30.24,NNW,338,3.6,4.3,50,0.00,,,0.00,VWS V14.01,2013-02-22 09:26:00,
2013-02-22 04:31:00,36.3,19.9,30.24,NNW,338,4.7,4.7,51,0.00,,,0.00,VWS V14.01,2013-02-22 09:31:00,
2013-02-22 04:36:00,36.3,19.9,30.24,North,0,4.0,4.0,51,0.00,,,0.00,VWS V14.01,2013-02-22 09:36:00,
2013-02-22 04:41:00,36.3,19.9,30.24,NNW,338,3.4,3.4,51,0.00,,,0.00,VWS V14.01,2013-02-22 09:41:00,
2013-02-22 04:46:00,36.3,19.9,30.24,NNW,338,2.5,3.4,51,0.00,,,0.00,VWS V14.01,2013-02-22 09:46:00,
2013-02-22 04:51:00,36.3,19.9,30.24,NNW,338,3.6,3.6,51,0.00,,,0.00,VWS V14.01,2013-02-22 09:51:00,
2013-02-22 04:56:00,36.3,19.9,30.24,NNW,338,2.5,2.9,51,0.00,,,0.00,VWS V14.01,2013-02-22 09:56:00,
2013-02-22 05:01:00,36.3,19.9,30.24,NNW,338,2.9,2.9,51,0.00,,,0.00,VWS V14.01,2013-02-22 10:01:00,
2013-02-22 05:06:00,36.3,19.9,30.24,NNW,338,2.5,2.7,51,0.00,,,0.00,VWS V14.01,2013-02-22 10:06:00,
2013-02-22 05:11:00,36.3,20.4,30.24,NNW,338,3.8,4.0,52,0.00,,,0.00,VWS V14.01,2013-02-22 10:11:00,
2013-02-22 05:16:00,36.5,20.6,30.24,North,0,2.9,3.1,52,0.00,,,0.00,VWS V14.01,2013-02-22 10:16:00,
2013-02-22 05:21:00,36.5,20.6,30.24,NNW,338,4.0,4.0,52,0.00,,,0.00,VWS V14.01,2013-02-22 10:21:00,
2013-02-22 05:26:00,36.5,21.0,30.24,NNW,338,3.6,3.6,53,0.00,,,0.00,VWS V14.01,2013-02-22 10:26:00,
2013-02-22 05:31:00,36.5,21.0,30.24,North,0,3.1,3.1,53,0.00,,,0.00,VWS V14.01,2013-02-22 10:31:00,
2013-02-22 05:36:00,36.7,21.2,30.24,NNE,22,2.5,2.5,53,0.00,,,0.00,VWS V14.01,2013-02-22 10:36:00,
2013-02-22 05:41:00,36.7,21.2,30.24,NNE,22,3.6,3.6,53,0.00,,,0.00,VWS V14.01,2013-02-22 10:41:00,
2013-02-22 05:46:00,36.7,21.2,30.24,North,0,2.9,3.8,53,0.00,,,0.00,VWS V14.01,2013-02-22 10:46:00,
2013-02-22 05:51:00,36.7,21.2,30.24,North,0,2.5,2.9,53,0.00,,,0.00,VWS V14.01,2013-02-22 10:51:00,
2013-02-22 05:56:00,36.5,21.0,30.24,NNE,22,2.5,2.9,53,0.00,,,0.00,VWS V14.01,2013-02-22 10:56:00,
2013-02-22 06:01:00,36.5,21.5,30.24,NNE,22,3.6,3.6,54,0.00,,,0.00,VWS V14.01,2013-02-22 11:01:00,
2013-02-22 06:06:00,36.5,21.9,30.24,NNE,22,3.4,3.4,55,0.00,,,0.00,VWS V14.01,2013-02-22 11:06:00,
2013-02-22 06:11:00,36.3,21.3,30.21,NNE,22,3.4,3.4,54,0.00,,,0.00,VWS V14.01,2013-02-22 11:11:00,
2013-02-22 06:16:00,36.3,21.7,30.21,ENE,68,3.8,5.4,55,0.00,,,0.00,VWS V14.01,2013-02-22 11:16:00,
2013-02-22 06:21:00,36.3,21.7,30.21,ENE,68,3.1,3.8,55,0.00,,,0.00,VWS V14.01,2013-02-22 11:21:00,
2013-02-22 06:26:00,36.3,21.7,30.18,ENE,68,6.5,6.5,55,0.00,,,0.00,VWS V14.01,2013-02-22 11:26:00,
2013-02-22 06:31:00,36.3,22.1,30.18,ENE,68,3.4,3.4,56,0.00,,,0.00,VWS V14.01,2013-02-22 11:31:00,
2013-02-22 06:36:00,36.3,22.1,30.18,East,90,6.5,6.5,56,0.00,,,0.00,VWS V14.01,2013-02-22 11:36:00,
2013-02-22 06:41:00,36.3,22.1,30.18,East,90,2.9,7.2,56,0.00,,,0.00,VWS V14.01,2013-02-22 11:41:00,
2013-02-22 06:46:00,36.3,22.6,30.18,ENE,68,3.1,6.3,57,0.00,,,0.00,VWS V14.01,2013-02-22 11:46:00,
2013-02-22 06:51:00,36.3,22.6,30.18,ENE,68,6.0,6.0,57,0.00,,,0.00,VWS V14.01,2013-02-22 11:51:00,
2013-02-22 06:56:00,36.3,22.6,30.21,NNE,22,3.6,3.6,57,0.00,,,0.00,VWS V14.01,2013-02-22 11:56:00,
2013-02-22 07:01:00,36.5,23.1,30.21,ENE,68,2.0,2.7,58,0.00,,,0.00,VWS V14.01,2013-02-22 12:01:00,
2013-02-22 07:06:00,36.5,23.1,30.21,ENE,68,2.7,2.7,58,0.00,,,0.00,VWS V14.01,2013-02-22 12:06:00,
2013-02-22 07:11:00,36.7,23.7,30.21,NE,45,2.5,2.5,59,0.00,,,0.00,VWS V14.01,2013-02-22 12:11:00,
2013-02-22 07:16:00,36.7,24.1,30.21,NNE,22,2.5,2.5,60,0.00,,,0.00,VWS V14.01,2013-02-22 12:16:00,
2013-02-22 07:21:00,36.7,24.1,30.21,ENE,68,2.0,2.7,60,0.00,,,0.00,VWS V14.01,2013-02-22 12:21:00,
2013-02-22 07:26:00,36.9,24.3,30.21,NE,45,4.3,4.3,60,0.00,,,0.00,VWS V14.01,2013-02-22 12:26:00,
2013-02-22 07:31:00,36.9,23.5,30.21,NNE,22,1.6,5.4,58,0.00,,,0.00,VWS V14.01,2013-02-22 12:31:00,
2013-02-22 07:36:00,36.9,23.5,30.21,ENE,68,3.6,3.6,58,0.00,,,0.00,VWS V14.01,2013-02-22 12:36:00,
2013-02-22 07:41:00,36.9,23.5,30.24,ENE,68,5.6,5.6,58,0.00,,,0.00,VWS V14.01,2013-02-22 12:41:00,
2013-02-22 07:46:00,36.9,23.5,30.24,ENE,68,2.0,3.8,58,0.00,,,0.00,VWS V14.01,2013-02-22 12:46:00,
2013-02-22 07:51:00,36.9,23.5,30.24,ENE,68,2.0,3.6,58,0.00,,,0.00,VWS V14.01,2013-02-22 12:51:00,
2013-02-22 07:56:00,36.9,23.5,30.24,NE,45,4.9,8.1,58,0.00,,,0.00,VWS V14.01,2013-02-22 12:56:00,
2013-02-22 08:01:00,36.9,23.5,30.24,ENE,68,3.8,3.8,58,0.00,,,0.00,VWS V14.01,2013-02-22 13:01:00,
2013-02-22 08:06:00,36.7,23.3,30.24,ENE,68,6.5,6.5,58,0.00,,,0.00,VWS V14.01,2013-02-22 13:06:00,
2013-02-22 08:11:00,36.7,23.3,30.24,East,90,6.5,6.5,58,0.00,,,0.00,VWS V14.01,2013-02-22 13:11:00,
2013-02-22 08:16:00,36.7,23.3,30.24,NNE,22,5.4,5.8,58,0.00,,,0.00,VWS V14.01,2013-02-22 13:16:00,
2013-02-22 08:21:00,36.7,22.9,30.24,East,90,4.0,4.7,57,0.00,,,0.00,VWS V14.01,2013-02-22 13:21:00,
2013-02-22 08:26:00,36.5,22.7,30.24,ESE,112,5.6,5.6,57,0.00,,,0.00,VWS V14.01,2013-02-22 13:26:00,
2013-02-22 08:31:00,36.5,23.1,30.24,ENE,68,8.7,8.7,58,0.00,,,0.00,VWS V14.01,2013-02-22 13:31:00,
2013-02-22 08:36:00,36.3,22.6,30.24,East,90,7.6,7.6,57,0.00,,,0.00,VWS V14.01,2013-02-22 13:36:00,
2013-02-22 08:41:00,36.3,23.0,30.24,East,90,4.0,5.4,58,0.00,,,0.00,VWS V14.01,2013-02-22 13:41:00,
2013-02-22 08:46:00,36.5,23.1,30.24,ESE,112,10.7,10.7,58,0.00,,,0.00,VWS V14.01,2013-02-22 13:46:00,
2013-02-22 08:51:00,36.5,23.5,30.24,ENE,68,7.8,7.8,59,0.00,,,0.00,VWS V14.01,2013-02-22 13:51:00,
2013-02-22 08:56:00,36.5,24.0,30.24,East,90,6.5,6.5,60,0.00,,,0.00,VWS V14.01,2013-02-22 13:56:00,
2013-02-22 09:01:00,36.7,24.5,30.24,ENE,68,4.9,4.9,61,0.00,,,0.00,VWS V14.01,2013-02-22 14:01:00,
2013-02-22 09:06:00,36.7,24.9,30.24,NE,45,5.6,7.4,62,0.00,,,0.00,VWS V14.01,2013-02-22 14:06:00,
2013-02-22 09:11:00,36.7,25.3,30.21,NNE,22,3.8,8.5,63,0.00,,,0.00,VWS V14.01,2013-02-22 14:11:00,
2013-02-22 09:16:00,36.9,25.8,30.21,ENE,68,6.5,6.5,64,0.00,,,0.00,VWS V14.01,2013-02-22 14:16:00,
2013-02-22 09:21:00,37.0,26.4,30.21,East,90,6.3,6.3,65,0.00,,,0.00,VWS V14.01,2013-02-22 14:21:00,
2013-02-22 09:26:00,36.9,26.6,30.21,ENE,68,3.6,3.8,66,0.00,,,0.00,VWS V14.01,2013-02-22 14:26:00,
2013-02-22 09:31:00,37.0,26.8,30.21,ENE,68,7.2,7.2,66,0.00,,,0.00,VWS V14.01,2013-02-22 14:31:00,
2013-02-22 09:36:00,37.4,26.7,30.21,East,90,6.5,6.5,65,0.00,,,0.00,VWS V14.01,2013-02-22 14:36:00,
2013-02-22 09:41:00,37.2,26.9,30.21,East,90,5.6,9.8,66,0.00,,,0.00,VWS V14.01,2013-02-22 14:41:00,
2013-02-22 09:46:00,37.4,27.1,30.21,East,90,9.4,9.4,66,0.00,,,0.00,VWS V14.01,2013-02-22 14:46:00,
2013-02-22 09:51:00,37.4,27.5,30.21,ENE,68,7.2,7.2,67,0.00,,,0.00,VWS V14.01,2013-02-22 14:51:00,
2013-02-22 09:56:00,37.4,27.8,30.21,ENE,68,7.8,7.8,68,0.00,,,0.00,VWS V14.01,2013-02-22 14:56:00,
2013-02-22 10:01:00,37.4,28.5,30.21,East,90,4.0,4.9,70,0.00,,,0.00,VWS V14.01,2013-02-22 15:01:00,
2013-02-22 10:06:00,37.2,29.0,30.21,ESE,112,2.7,5.8,72,0.00,,,0.00,VWS V14.01,2013-02-22 15:06:00,
2013-02-22 10:11:00,37.2,30.0,30.21,ENE,68,6.7,6.7,75,0.00,,,0.00,VWS V14.01,2013-02-22 15:11:00,
2013-02-22 10:16:00,37.2,30.0,30.21,ESE,112,7.2,7.6,75,0.00,,,0.00,VWS V14.01,2013-02-22 15:16:00,
2013-02-22 10:21:00,37.2,30.4,30.21,ENE,68,3.1,3.1,76,0.00,,,0.00,VWS V14.01,2013-02-22 15:21:00,
2013-02-22 10:26:00,37.6,31.0,30.21,East,90,8.1,8.1,77,0.00,,,0.00,VWS V14.01,2013-02-22 15:26:00,
2013-02-22 10:31:00,37.6,30.7,30.21,East,90,11.2,11.2,76,0.00,,,0.00,VWS V14.01,2013-02-22 15:31:00,
2013-02-22 10:36:00,37.8,31.2,30.21,East,90,2.0,2.7,77,0.00,,,0.00,VWS V14.01,2013-02-22 15:36:00,
2013-02-22 10:41:00,37.9,31.4,30.21,East,90,5.6,5.6,77,0.00,,,0.00,VWS V14.01,2013-02-22 15:41:00,
2013-02-22 10:46:00,38.1,31.6,30.21,East,90,4.0,6.3,77,0.00,,,0.00,VWS V14.01,2013-02-22 15:46:00,
2013-02-22 10:51:00,38.5,31.9,30.21,East,90,3.6,3.6,77,0.00,,,0.00,VWS V14.01,2013-02-22 15:51:00,
2013-02-22 10:56:00,38.5,31.6,30.21,ESE,112,5.6,7.4,76,0.00,,,0.00,VWS V14.01,2013-02-22 15:56:00,
2013-02-22 11:01:00,38.5,31.6,30.21,ENE,68,2.9,2.9,76,0.00,,,0.00,VWS V14.01,2013-02-22 16:01:00,
2013-02-22 11:06:00,38.7,31.8,30.21,ENE,68,4.3,7.6,76,0.00,,,0.00,VWS V14.01,2013-02-22 16:06:00,
2013-02-22 11:11:00,38.7,31.8,30.24,ESE,112,2.9,2.9,76,0.00,,,0.00,VWS V14.01,2013-02-22 16:11:00,
2013-02-22 11:16:00,38.7,31.8,30.24,East,90,4.0,4.0,76,0.00,,,0.00,VWS V14.01,2013-02-22 16:16:00,
2013-02-22 11:21:00,38.8,31.9,30.24,ESE,112,4.3,5.8,76,0.00,,,0.00,VWS V14.01,2013-02-22 16:21:00,
2013-02-22 11:26:00,39.2,32.3,30.21,ESE,112,7.6,7.6,76,0.00,,,0.00,VWS V14.01,2013-02-22 16:26:00,
2013-02-22 11:31:00,39.4,32.1,30.21,ESE,112,3.4,5.6,75,0.00,,,0.00,VWS V14.01,2013-02-22 16:31:00,
2013-02-22 11:36:00,40.1,32.8,30.21,SSE,158,3.6,4.3,75,0.00,,,0.00,VWS V14.01,2013-02-22 16:36:00,
2013-02-22 11:41:00,40.3,32.3,30.21,SE,135,3.8,3.8,73,0.00,,,0.00,VWS V14.01,2013-02-22 16:41:00,
2013-02-22 11:46:00,40.3,32.0,30.21,East,90,4.0,4.0,72,0.00,,,0.00,VWS V14.01,2013-02-22 16:46:00,
2013-02-22 11:51:00,40.3,32.0,30.21,SSW,202,1.1,2.7,72,0.00,,,0.00,VWS V14.01,2013-02-22 16:51:00,
2013-02-22 11:56:00,40.5,31.5,30.21,South,180,0.9,2.9,70,0.00,,,0.00,VWS V14.01,2013-02-22 16:56:00,
2013-02-22 12:01:00,40.6,31.6,30.21,WSW,248,2.7,2.7,70,0.00,,,0.00,VWS V14.01,2013-02-22 17:01:00,
2013-02-22 12:06:00,41.0,32.0,30.21,NE,45,3.8,3.8,70,0.00,,,0.00,VWS V14.01,2013-02-22 17:06:00,
2013-02-22 12:11:00,40.8,31.5,30.21,ENE,68,3.8,3.8,69,0.00,,,0.00,VWS V14.01,2013-02-22 17:11:00,
2013-02-22 12:16:00,41.2,32.2,30.21,ENE,68,2.0,3.1,70,0.00,,,0.00,VWS V14.01,2013-02-22 17:16:00,
2013-02-22 12:21:00,41.5,31.8,30.21,ENE,68,2.5,2.5,68,0.00,,,0.00,VWS V14.01,2013-02-22 17:21:00,
2013-02-22 12:26:00,41.7,32.0,30.21,East,90,2.2,2.2,68,0.00,,,0.00,VWS V14.01,2013-02-22 17:26:00,
2013-02-22 12:31:00,42.1,32.3,30.21,East,90,4.0,4.0,68,0.00,,,0.00,VWS V14.01,2013-02-22 17:31:00,
2013-02-22 12:36:00,41.9,32.1,30.21,East,90,4.3,4.3,68,0.00,,,0.00,VWS V14.01,2013-02-22 17:36:00,
2013-02-22 12:41:00,41.9,32.1,30.21,ENE,68,4.3,4.3,68,0.00,,,0.00,VWS V14.01,2013-02-22 17:41:00,
2013-02-22 12:46:00,41.7,32.0,30.21,East,90,4.0,5.4,68,0.00,,,0.00,VWS V14.01,2013-02-22 17:46:00,
2013-02-22 12:51:00,41.7,32.0,30.21,NNE,22,2.5,2.5,68,0.00,,,0.00,VWS V14.01,2013-02-22 17:51:00,
2013-02-22 12:56:00,41.7,32.0,30.18,NE,45,3.8,4.0,68,0.00,,,0.00,VWS V14.01,2013-02-22 17:56:00,
2013-02-22 13:01:00,41.9,31.8,30.18,NNE,22,3.6,3.6,67,0.00,,,0.00,VWS V14.01,2013-02-22 18:01:00,
2013-02-22 13:06:00,42.1,32.3,30.18,ESE,112,5.6,5.6,68,0.00,,,0.00,VWS V14.01,2013-02-22 18:06:00,
2013-02-22 13:11:00,41.7,32.0,30.18,East,90,4.3,4.3,68,0.00,,,0.00,VWS V14.01,2013-02-22 18:11:00,
2013-02-22 13:16:00,42.1,32.7,30.18,East,90,2.9,2.9,69,0.00,,,0.00,VWS V14.01,2013-02-22 18:16:00,
2013-02-22 13:21:00,42.3,32.8,30.18,NE,45,6.0,6.0,69,0.00,,,0.00,VWS V14.01,2013-02-22 18:21:00,
2013-02-22 13:26:00,42.1,33.0,30.18,East,90,3.4,3.4,70,0.00,,,0.00,VWS V14.01,2013-02-22 18:26:00,
2013-02-22 13:31:00,42.1,33.4,30.18,East,90,6.9,6.9,71,0.00,,,0.00,VWS V14.01,2013-02-22 18:31:00,
2013-02-22 13:36:00,41.9,33.2,30.18,NE,45,3.4,4.9,71,0.00,,,0.00,VWS V14.01,2013-02-22 18:36:00,
2013-02-22 13:41:00,41.7,33.0,30.18,NE,45,2.0,2.0,71,0.00,,,0.00,VWS V14.01,2013-02-22 18:41:00,
2013-02-22 13:46:00,41.9,33.5,30.18,ENE,68,2.5,2.5,72,0.00,,,0.00,VWS V14.01,2013-02-22 18:46:00,
2013-02-22 13:51:00,41.7,33.4,30.18,ENE,68,2.9,3.1,72,0.00,,,0.00,VWS V14.01,2013-02-22 18:51:00,
2013-02-22 13:56:00,41.5,33.5,30.18,East,90,5.4,5.4,73,0.00,,,0.00,VWS V14.01,2013-02-22 18:56:00,
2013-02-22 14:01:00,41.7,34.1,30.18,East,90,2.0,2.0,74,0.00,,,0.00,VWS V14.01,2013-02-22 19:01:00,
2013-02-22 14:06:00,41.5,33.9,30.18,East,90,4.3,4.3,74,0.00,,,0.00,VWS V14.01,2013-02-22 19:06:00,
2013-02-22 14:11:00,41.5,33.9,30.18,NNE,22,2.9,4.9,74,0.00,,,0.00,VWS V14.01,2013-02-22 19:11:00,
2013-02-22 14:16:00,41.4,33.7,30.18,NE,45,2.9,2.9,74,0.00,,,0.00,VWS V14.01,2013-02-22 19:16:00,
2013-02-22 14:21:00,41.2,33.9,30.18,NNE,22,4.3,4.3,75,0.00,,,0.00,VWS V14.01,2013-02-22 19:21:00,
2013-02-22 14:26:00,41.5,34.2,30.18,NE,45,5.4,5.4,75,0.00,,,0.00,VWS V14.01,2013-02-22 19:26:00,
2013-02-22 14:31:00,41.5,34.2,30.18,ENE,68,5.8,5.8,75,0.00,,,0.00,VWS V14.01,2013-02-22 19:31:00,
2013-02-22 14:36:00,41.5,34.2,30.18,ENE,68,2.9,2.9,75,0.00,,,0.00,VWS V14.01,2013-02-22 19:36:00,
2013-02-22 14:41:00,41.5,34.5,30.18,East,90,3.6,6.0,76,0.00,,,0.00,VWS V14.01,2013-02-22 19:41:00,
2013-02-22 14:46:00,41.5,34.9,30.18,ENE,68,3.6,4.3,77,0.00,,,0.00,VWS V14.01,2013-02-22 19:46:00,
2013-02-22 14:51:00,41.7,35.0,30.18,ESE,112,5.6,5.6,77,0.00,,,0.00,VWS V14.01,2013-02-22 19:51:00,
2013-02-22 14:56:00,41.5,34.9,30.15,ENE,68,4.3,4.3,77,0.00,,,0.00,VWS V14.01,2013-02-22 19:56:00,
2013-02-22 15:01:00,41.5,35.2,30.15,ENE,68,5.4,5.4,78,0.00,,,0.00,VWS V14.01,2013-02-22 20:01:00,
2013-02-22 15:06:00,41.5,34.9,30.15,NE,45,2.0,2.0,77,0.00,,,0.00,VWS V14.01,2013-02-22 20:06:00,
2013-02-22 15:12:00,41.4,34.7,30.15,NE,45,4.5,4.5,77,0.00,,,0.00,VWS V14.01,2013-02-22 20:12:00,
2013-02-22 15:17:00,41.2,34.8,30.15,NE,45,2.5,2.5,78,0.00,,,0.00,VWS V14.01,2013-02-22 20:17:00,
2013-02-22 15:22:00,41.2,34.8,30.15,East,90,3.1,3.6,78,0.00,,,0.00,VWS V14.01,2013-02-22 20:22:00,
2013-02-22 15:27:00,41.2,34.8,30.15,East,90,4.9,4.9,78,0.00,,,0.00,VWS V14.01,2013-02-22 20:27:00,
2013-02-22 15:32:00,41.2,34.8,30.15,NE,45,4.0,4.0,78,0.00,,,0.00,VWS V14.01,2013-02-22 20:32:00,
2013-02-22 15:37:00,41.2,34.8,30.15,East,90,0.9,0.9,78,0.00,,,0.00,VWS V14.01,2013-02-22 20:37:00,
2013-02-22 15:42:00,41.0,34.7,30.15,ENE,68,3.8,4.3,78,0.00,,,0.00,VWS V14.01,2013-02-22 20:42:00,
2013-02-22 15:47:00,41.2,34.8,30.15,ENE,68,3.4,5.8,78,0.00,,,0.00,VWS V14.01,2013-02-22 20:47:00,
2013-02-22 15:52:00,41.4,35.0,30.15,East,90,3.1,3.1,78,0.00,,,0.00,VWS V14.01,2013-02-22 20:52:00,
2013-02-22 15:57:00,41.2,35.2,30.15,East,90,3.1,3.1,79,0.00,,,0.00,VWS V14.01,2013-02-22 20:57:00,
2013-02-22 16:02:00,41.2,35.2,30.15,NE,45,3.6,3.6,79,0.00,,,0.00,VWS V14.01,2013-02-22 21:02:00,
2013-02-22 16:07:00,41.0,34.7,30.15,ENE,68,4.0,4.0,78,0.00,,,0.00,VWS V14.01,2013-02-22 21:07:00,
2013-02-22 16:12:00,41.0,34.7,30.15,ENE,68,2.9,3.1,78,0.00,,,0.00,VWS V14.01,2013-02-22 21:12:00,
2013-02-22 16:17:00,41.0,34.7,30.15,NNE,22,2.5,2.9,78,0.00,,,0.00,VWS V14.01,2013-02-22 21:17:00,
2013-02-22 16:22:00,41.0,34.7,30.15,ENE,68,1.6,1.6,78,0.00,,,0.00,VWS V14.01,2013-02-22 21:22:00,
2013-02-22 16:27:00,41.0,35.0,30.15,NE,45,2.0,3.6,79,0.00,,,0.00,VWS V14.01,2013-02-22 21:27:00,
2013-02-22 16:32:00,41.2,34.8,30.15,ENE,68,1.3,2.5,78,0.00,,,0.00,VWS V14.01,2013-02-22 21:32:00,
2013-02-22 16:37:00,41.2,35.2,30.15,ENE,68,3.4,3.4,79,0.00,,,0.00,VWS V14.01,2013-02-22 21:37:00,
2013-02-22 16:42:00,41.0,35.0,30.15,NNE,22,2.9,2.9,79,0.00,,,0.00,VWS V14.01,2013-02-22 21:42:00,
2013-02-22 16:47:00,41.0,35.3,30.15,NNE,22,1.6,2.9,80,0.00,,,0.00,VWS V14.01,2013-02-22 21:47:00,
2013-02-22 16:52:00,41.0,35.6,30.15,ENE,68,3.8,3.8,81,0.00,,,0.00,VWS V14.01,2013-02-22 21:52:00,
2013-02-22 16:57:00,41.0,35.6,30.15,ENE,68,3.8,3.8,81,0.00,,,0.00,VWS V14.01,2013-02-22 21:57:00,
2013-02-22 17:02:00,41.0,35.9,30.15,NE,45,4.3,4.5,82,0.00,,,0.00,VWS V14.01,2013-02-22 22:02:00,
2013-02-22 17:07:00,41.2,36.1,30.15,East,90,2.9,2.9,82,0.00,,,0.00,VWS V14.01,2013-02-22 22:07:00,
2013-02-22 17:12:00,41.2,36.1,30.15,East,90,3.1,4.3,82,0.00,,,0.00,VWS V14.01,2013-02-22 22:12:00,
2013-02-22 17:17:00,41.2,36.1,30.15,ENE,68,3.1,4.3,82,0.00,,,0.00,VWS V14.01,2013-02-22 22:17:00,
2013-02-22 17:22:00,41.2,35.8,30.15,ENE,68,2.9,2.9,81,0.00,,,0.00,VWS V14.01,2013-02-22 22:22:00,
2013-02-22 17:27:00,41.2,35.8,30.15,East,90,3.8,4.5,81,0.00,,,0.00,VWS V14.01,2013-02-22 22:27:00,
2013-02-22 17:32:00,41.2,35.8,30.15,ENE,68,3.4,3.4,81,0.00,,,0.00,VWS V14.01,2013-02-22 22:32:00,
2013-02-22 17:37:00,41.2,35.8,30.15,ENE,68,1.6,3.8,81,0.00,,,0.00,VWS V14.01,2013-02-22 22:37:00,
2013-02-22 17:42:00,41.2,35.8,30.15,ENE,68,1.6,2.5,81,0.00,,,0.00,VWS V14.01,2013-02-22 22:42:00,
2013-02-22 17:47:00,41.2,35.8,30.15,ENE,68,1.6,1.6,81,0.00,,,0.00,VWS V14.01,2013-02-22 22:47:00,
2013-02-22 17:52:00,41.2,35.8,30.15,ENE,68,3.4,3.6,81,0.00,,,0.00,VWS V14.01,2013-02-22 22:52:00,
2013-02-22 17:57:00,41.2,36.1,30.15,ENE,68,2.5,3.4,82,0.00,,,0.00,VWS V14.01,2013-02-22 22:57:00,
2013-02-22 18:02:00,41.2,36.1,30.15,ENE,68,2.9,2.9,82,0.00,,,0.00,VWS V14.01,2013-02-22 23:02:00,
2013-02-22 18:07:00,41.0,35.9,30.15,NE,45,3.1,3.1,82,0.00,,,0.00,VWS V14.01,2013-02-22 23:07:00,
2013-02-22 18:12:00,40.8,36.1,30.15,ENE,68,2.0,2.0,83,0.00,,,0.00,VWS V14.01,2013-02-22 23:12:00,
2013-02-22 18:17:00,40.6,36.2,30.15,NE,45,0.0,1.3,84,0.00,,,0.00,VWS V14.01,2013-02-22 23:17:00,
2013-02-22 18:22:00,40.5,36.3,30.15,ENE,68,1.6,2.7,85,0.00,,,0.00,VWS V14.01,2013-02-22 23:22:00,
2013-02-22 18:27:00,40.5,36.3,30.15,ENE,68,2.0,2.5,85,0.00,,,0.00,VWS V14.01,2013-02-22 23:27:00,
2013-02-22 18:32:00,40.5,36.3,30.15,NNE,22,0.0,0.0,85,0.00,,,0.00,VWS V14.01,2013-02-22 23:32:00,
2013-02-22 18:37:00,40.5,36.6,30.15,NE,45,2.0,2.0,86,0.00,,,0.00,VWS V14.01,2013-02-22 23:37:00,
2013-02-22 18:42:00,40.5,36.9,30.15,ENE,68,3.1,3.1,87,0.00,,,0.00,VWS V14.01,2013-02-22 23:42:00,
2013-02-22 18:47:00,40.5,37.2,30.15,ENE,68,2.0,2.0,88,0.00,,,0.00,VWS V14.01,2013-02-22 23:47:00,
2013-02-22 18:52:00,40.5,37.2,30.15,ENE,68,0.9,1.1,88,0.00,,,0.00,VWS V14.01,2013-02-22 23:52:00,
2013-02-22 18:57:00,40.5,37.2,30.15,ENE,68,3.4,3.4,88,0.00,,,0.00,VWS V14.01,2013-02-22 23:57:00,
2013-02-22 19:02:00,40.5,37.2,30.15,ENE,68,3.6,3.6,88,0.00,,,0.00,VWS V14.01,2013-02-23 00:02:00,
2013-02-22 19:07:00,40.5,37.5,30.15,ENE,68,3.4,3.4,89,0.00,,,0.00,VWS V14.01,2013-02-23 00:07:00,
2013-02-22 19:12:00,40.3,37.6,30.12,East,90,4.9,4.9,90,0.00,,,0.00,VWS V14.01,2013-02-23 00:12:00,
2013-02-22 19:17:00,40.3,38.2,30.12,East,90,2.7,3.1,92,0.00,,,0.00,VWS V14.01,2013-02-23 00:17:00,
2013-02-22 19:22:00,40.5,38.3,30.12,ESE,112,7.8,7.8,92,0.00,,,0.00,VWS V14.01,2013-02-23 00:22:00,
2013-02-22 19:27:00,40.3,38.2,30.09,ENE,68,4.0,6.5,92,0.00,,,0.00,VWS V14.01,2013-02-23 00:27:00,
2013-02-22 19:32:00,40.3,38.4,30.09,ENE,68,2.0,3.1,93,0.00,,,0.00,VWS V14.01,2013-02-23 00:32:00,
2013-02-22 19:37:00,40.3,38.2,30.09,ENE,68,6.5,6.5,92,0.00,,,0.00,VWS V14.01,2013-02-23 00:37:00,
2013-02-22 19:42:00,40.3,38.4,30.09,ESE,112,7.4,7.4,93,0.00,,,0.00,VWS V14.01,2013-02-23 00:42:00,
2013-02-22 19:47:00,40.3,38.4,30.09,East,90,3.4,3.4,93,0.00,,,0.00,VWS V14.01,2013-02-23 00:47:00,
2013-02-22 19:52:00,40.3,38.4,30.09,ENE,68,3.1,3.1,93,0.00,,,0.00,VWS V14.01,2013-02-23 00:52:00,
2013-02-22 19:57:00,40.5,38.6,30.09,NE,45,3.6,4.3,93,0.00,,,0.00,VWS V14.01,2013-02-23 00:57:00,
2013-02-22 20:02:00,40.5,38.6,30.09,East,90,5.8,5.8,93,0.00,,,0.00,VWS V14.01,2013-02-23 01:02:00,
2013-02-22 20:07:00,40.5,38.6,30.09,NE,45,6.7,6.7,93,0.00,,,0.00,VWS V14.01,2013-02-23 01:07:00,
2013-02-22 20:12:00,40.5,38.6,30.12,NE,45,4.0,6.5,93,0.00,,,0.00,VWS V14.01,2013-02-23 01:12:00,
2013-02-22 20:17:00,40.6,39.0,30.12,ENE,68,5.4,5.4,94,0.00,,,0.00,VWS V14.01,2013-02-23 01:17:00,
2013-02-22 20:22:00,40.6,39.0,30.12,ENE,68,2.7,2.7,94,0.00,,,0.00,VWS V14.01,2013-02-23 01:22:00,
2013-02-22 20:27:00,40.6,39.0,30.12,ENE,68,6.3,6.3,94,0.00,,,0.00,VWS V14.01,2013-02-23 01:27:00,
2013-02-22 20:32:00,40.8,39.2,30.12,ENE,68,2.0,2.0,94,0.00,,,0.00,VWS V14.01,2013-02-23 01:32:00,
2013-02-22 20:37:00,40.8,39.2,30.12,ENE,68,4.7,4.7,94,0.00,,,0.00,VWS V14.01,2013-02-23 01:37:00,
2013-02-22 20:42:00,41.0,39.1,30.12,ENE,68,4.3,4.3,93,0.00,,,0.00,VWS V14.01,2013-02-23 01:42:00,
2013-02-22 20:47:00,41.0,39.1,30.12,NNE,22,2.0,2.5,93,0.00,,,0.00,VWS V14.01,2013-02-23 01:47:00,
2013-02-22 20:52:00,41.0,39.1,30.12,NE,45,4.0,7.4,93,0.00,,,0.00,VWS V14.01,2013-02-23 01:52:00,
2013-02-22 20:57:00,41.2,39.6,30.12,ENE,68,4.7,4.7,94,0.00,,,0.00,VWS V14.01,2013-02-23 01:57:00,
2013-02-22 21:02:00,41.2,39.6,30.12,NE,45,4.9,4.9,94,0.00,,,0.00,VWS V14.01,2013-02-23 02:02:00,
2013-02-22 21:07:00,41.2,39.6,30.12,ENE,68,4.9,4.9,94,0.00,,,0.00,VWS V14.01,2013-02-23 02:07:00,
2013-02-22 21:12:00,41.4,40.0,30.12,ENE,68,2.2,3.1,95,0.00,,,0.00,VWS V14.01,2013-02-23 02:12:00,
2013-02-22 21:17:00,41.4,40.0,30.12,NE,45,2.5,4.3,95,0.00,,,0.00,VWS V14.01,2013-02-23 02:17:00,
2013-02-22 21:22:00,41.4,39.8,30.12,ENE,68,3.8,3.8,94,0.00,,,0.00,VWS V14.01,2013-02-23 02:22:00,
2013-02-22 21:27:00,41.4,39.8,30.12,ENE,68,2.9,2.9,94,0.00,,,0.00,VWS V14.01,2013-02-23 02:27:00,
2013-02-22 21:32:00,41.4,39.8,30.12,ENE,68,2.5,3.6,94,0.00,,,0.00,VWS V14.01,2013-02-23 02:32:00,
2013-02-22 21:37:00,41.5,40.0,30.12,ENE,68,4.5,4.5,94,0.00,,,0.00,VWS V14.01,2013-02-23 02:37:00,
2013-02-22 21:42:00,41.5,40.0,30.09,ENE,68,2.0,2.0,94,0.00,,,0.00,VWS V14.01,2013-02-23 02:42:00,
2013-02-22 21:47:00,41.5,40.0,30.09,ENE,68,3.8,3.8,94,0.00,,,0.00,VWS V14.01,2013-02-23 02:47:00,
2013-02-22 21:52:00,41.7,40.1,30.09,NE,45,2.9,2.9,94,0.00,,,0.00,VWS V14.01,2013-02-23 02:52:00,
2013-02-22 21:57:00,41.7,40.1,30.09,ENE,68,2.9,2.9,94,0.00,,,0.00,VWS V14.01,2013-02-23 02:57:00,
2013-02-22 22:02:00,41.9,40.6,30.09,NNE,22,1.3,3.4,95,0.00,,,0.00,VWS V14.01,2013-02-23 03:02:00,
2013-02-22 22:07:00,42.1,40.8,30.09,ENE,68,2.0,2.0,95,0.00,,,0.00,VWS V14.01,2013-02-23 03:07:00,
2013-02-22 22:12:00,42.1,40.8,30.09,NNE,22,2.0,2.0,95,0.00,,,0.00,VWS V14.01,2013-02-23 03:12:00,
2013-02-22 22:17:00,42.3,40.9,30.09,ENE,68,1.6,4.0,95,0.00,,,0.00,VWS V14.01,2013-02-23 03:17:00,
2013-02-22 22:22:00,42.3,40.9,30.09,East,90,3.1,3.1,95,0.00,,,0.00,VWS V14.01,2013-02-23 03:22:00,
2013-02-22 22:27:00,42.3,40.9,30.09,East,90,1.6,4.3,95,0.00,,,0.00,VWS V14.01,2013-02-23 03:27:00,
2013-02-22 22:32:00,42.4,41.1,30.09,ENE,68,4.3,4.3,95,0.00,,,0.00,VWS V14.01,2013-02-23 03:32:00,
2013-02-22 22:37:00,42.4,41.1,30.09,ENE,68,2.9,2.9,95,0.00,,,0.00,VWS V14.01,2013-02-23 03:37:00,
2013-02-22 22:42:00,42.4,41.4,30.09,East,90,2.7,2.7,96,0.00,,,0.00,VWS V14.01,2013-02-23 03:42:00,
2013-02-22 22:47:00,42.6,41.6,30.09,ENE,68,2.9,3.6,96,0.00,,,0.00,VWS V14.01,2013-02-23 03:47:00,
2013-02-22 22:52:00,42.8,41.5,30.09,NNE,22,1.6,2.0,95,0.00,,,0.00,VWS V14.01,2013-02-23 03:52:00,
2013-02-22 22:57:00,42.8,41.5,30.09,NNE,22,0.0,1.3,95,0.00,,,0.00,VWS V14.01,2013-02-23 03:57:00,
2013-02-22 23:02:00,42.8,41.2,30.09,ENE,68,1.6,1.6,94,0.00,,,0.00,VWS V14.01,2013-02-23 04:02:00,
2013-02-22 23:07:00,43.0,41.4,30.09,ENE,68,0.0,0.0,94,0.00,,,0.00,VWS V14.01,2013-02-23 04:07:00,
2013-02-22 23:12:00,43.0,41.4,30.09,East,90,2.0,2.0,94,0.00,,,0.00,VWS V14.01,2013-02-23 04:12:00,
2013-02-22 23:17:00,43.0,41.1,30.09,East,90,4.0,4.0,93,0.00,,,0.00,VWS V14.01,2013-02-23 04:17:00,
2013-02-22 23:22:00,43.2,41.5,30.09,ESE,112,4.0,4.0,94,0.00,,,0.00,VWS V14.01,2013-02-23 04:22:00,
2013-02-22 23:27:00,43.2,41.5,30.06,East,90,0.9,1.6,94,0.00,,,0.00,VWS V14.01,2013-02-23 04:27:00,
2013-02-22 23:32:00,43.3,41.7,30.06,ENE,68,2.9,2.9,94,0.00,,,0.00,VWS V14.01,2013-02-23 04:32:00,
2013-02-22 23:37:00,43.3,41.7,30.06,NE,45,1.1,1.1,94,0.00,,,0.00,VWS V14.01,2013-02-23 04:37:00,
2013-02-22 23:42:00,43.3,41.7,30.06,ENE,68,1.3,1.3,94,0.00,,,0.00,VWS V14.01,2013-02-23 04:42:00,
2013-02-22 23:47:00,43.5,41.9,30.06,NNE,22,2.7,2.7,94,0.00,,,0.00,VWS V14.01,2013-02-23 04:47:00,
2013-02-22 23:52:00,43.5,41.9,30.06,NNE,22,0.9,1.6,94,0.00,,,0.00,VWS V14.01,2013-02-23 04:52:00,
2013-02-22 23:57:00,43.5,41.9,30.06,ENE,68,0.9,2.7,94,0.00,,,0.00,VWS V14.01,2013-02-23 04:57:00,